首页
METAR-TAF:

METAR-TAF

机场 :

Newport News/Williamsburg International Airport

紐波特紐斯, 弗吉尼亚州, 美国

纬度: 37-07-55N, 经度: 076-29-35W, 海拔: 13米

当前天气观测

该预报发布于46分钟前的18:54 UTC
风速13节,风向,有时为19节阵风
温度 9°C
湿度 66%
气压 1016 hPa
能見度: 16.1公里
阴天层高于2000英尺

METAR: KPHF 171854Z 01013G19KT 10SM OVC020 09/03 A3001 RMK AO2 SLP161 T00940033

时间: 14:40 (19:40 UTC)

预报

该预报发布于2小时和17分钟前的17:23 UTC
预报有效从17日的 18点(UTC)到 18日的 18点(UTC)
风速14节,风向,有时为22节阵风
能見度: 10公里
阴天层高于1500英尺
从 18日的 0300点(UTC)
风速12节,风向,有时为20节阵风
能見度: 10公里
阴天层高于800英尺
从 18日的 1400点(UTC)
风速9节,风向北转西北
能見度: 10公里
多云层高于800英尺
从 18日的 1600点(UTC)
风速8节,风向北转西北
能見度: 10公里
多云层高于1000英尺

TAF: KPHF 171723Z 1718/1818 01014G22KT P6SM OVC015 FM180300 36012G20KT P6SM OVC008 FM181400 33009KT P6SM BKN008 FM181600 33008KT P6SM BKN010

超过4000个机场的气象观测和天气预报(METAR&TAF报告)。

可查询的气象台以黄色和红色小点在地图上表示。

将鼠标移到小点上方,可查看气象台名称。

然后点击查看天气观测和预报。

如需切换地图:点击带黑十字的绿色按钮放大地图;点击带横线的绿色按钮缩小地图;或者点击绿色箭头查看邻近地区的地图。


METAR-TAF: